createdAt,value
2019-02-03T00:00:53.573Z,26.90
2019-02-03T00:01:53.577Z,26.90
2019-02-03T00:02:53.508Z,26.90
2019-02-03T00:03:53.579Z,26.90
2019-02-03T00:04:53.548Z,27.00
2019-02-03T00:05:53.531Z,27.00
2019-02-03T00:07:03.001Z,27.00
2019-02-03T00:07:53.523Z,27.00
2019-02-03T00:08:53.515Z,27.00
2019-02-03T00:09:53.466Z,27.00
2019-02-03T00:10:53.567Z,27.00
2019-02-03T00:11:53.491Z,27.00
2019-02-03T00:12:53.526Z,27.00
2019-02-03T00:13:53.521Z,27.00
2019-02-03T00:14:53.539Z,27.00
2019-02-03T00:15:53.573Z,25.30
2019-02-03T00:16:53.498Z,25.30
2019-02-03T00:17:53.572Z,25.30
2019-02-03T00:18:53.573Z,25.30
2019-02-03T00:19:53.507Z,25.30
2019-02-03T00:20:53.519Z,25.30
2019-02-03T00:21:53.574Z,25.30
2019-02-03T00:22:53.587Z,25.30
2019-02-03T00:23:53.508Z,25.30
2019-02-03T00:24:53.578Z,25.30
2019-02-03T00:25:53.517Z,24.99
2019-02-03T00:26:53.465Z,24.99
2019-02-03T00:27:53.559Z,24.99
2019-02-03T00:28:53.485Z,24.99
2019-02-03T00:29:53.451Z,24.99
2019-02-03T00:30:53.437Z,24.99
2019-02-03T00:31:53.485Z,24.99
2019-02-03T00:32:53.561Z,24.99
2019-02-03T00:33:53.477Z,24.99
2019-02-03T00:34:53.455Z,24.99
2019-02-03T00:35:53.527Z,24.30
2019-02-03T00:36:53.568Z,24.30
2019-02-03T00:37:53.603Z,24.30
2019-02-03T00:38:53.659Z,24.30
2019-02-03T00:39:53.721Z,24.30
2019-02-03T00:40:53.560Z,24.30
2019-02-03T00:41:53.606Z,24.30
2019-02-03T00:42:53.603Z,24.30
2019-02-03T00:43:53.610Z,24.30
2019-02-03T00:44:53.550Z,24.30
2019-02-03T00:45:53.601Z,26.20
2019-02-03T00:46:53.606Z,26.20
2019-02-03T00:47:53.550Z,26.20
2019-02-03T00:48:53.559Z,26.20
2019-02-03T00:49:53.615Z,26.20
2019-02-03T00:50:53.552Z,26.20
2019-02-03T00:51:53.619Z,26.20
2019-02-03T00:52:53.549Z,26.20
2019-02-03T00:53:53.613Z,26.20
2019-02-03T00:54:53.559Z,26.20
2019-02-03T00:55:53.670Z,20.90
2019-02-03T00:56:53.622Z,20.90
2019-02-03T00:57:53.611Z,20.90
2019-02-03T00:58:53.568Z,20.90
2019-02-03T00:59:53.603Z,20.90
2019-02-03T01:00:53.538Z,20.90
2019-02-03T01:01:53.626Z,20.90
2019-02-03T01:02:53.644Z,20.90
2019-02-03T01:03:53.628Z,20.90
2019-02-03T01:04:53.618Z,20.90
2019-02-03T01:05:53.608Z,24.50
2019-02-03T01:06:53.543Z,24.50
2019-02-03T01:07:53.549Z,24.50
2019-02-03T01:08:53.601Z,24.50
2019-02-03T01:09:53.623Z,24.50
2019-02-03T01:10:53.552Z,24.50
2019-02-03T01:11:53.557Z,24.50
2019-02-03T01:12:53.654Z,24.50
2019-02-03T01:13:53.551Z,24.50
2019-02-03T01:14:53.550Z,24.50
2019-02-03T01:15:53.619Z,19.80
2019-02-03T01:16:53.650Z,19.80
2019-02-03T01:17:53.651Z,19.80
2019-02-03T01:18:53.571Z,19.80
2019-02-03T01:19:53.574Z,19.80
2019-02-03T01:20:53.578Z,19.80
2019-02-03T01:21:53.625Z,19.80
2019-02-03T01:22:53.639Z,19.80
2019-02-03T01:23:53.702Z,19.80
2019-02-03T01:24:53.643Z,19.80
2019-02-03T01:25:53.553Z,19.70
2019-02-03T01:26:53.623Z,19.70
2019-02-03T01:27:53.576Z,19.70
2019-02-03T01:28:53.622Z,19.70
2019-02-03T01:29:53.561Z,19.70
2019-02-03T01:30:53.631Z,19.70
2019-02-03T01:31:53.785Z,19.70
2019-02-03T01:32:53.564Z,19.70
2019-02-03T01:33:53.641Z,19.70
2019-02-03T01:34:53.564Z,19.70
2019-02-03T01:35:53.627Z,22.60
2019-02-03T01:36:53.638Z,22.60
2019-02-03T01:37:53.566Z,22.60
2019-02-03T01:38:53.564Z,22.60
2019-02-03T01:39:53.631Z,22.60
2019-02-03T01:40:53.631Z,22.60
2019-02-03T01:41:53.584Z,22.60
2019-02-03T01:42:53.643Z,22.60
2019-02-03T01:43:53.561Z,22.60
2019-02-03T01:44:53.637Z,22.60
2019-02-03T01:45:53.647Z,22.70
2019-02-03T01:46:53.655Z,22.70
2019-02-03T01:47:53.588Z,22.70
2019-02-03T01:48:53.576Z,22.70
2019-02-03T01:49:53.659Z,22.70
2019-02-03T01:50:53.575Z,22.70
2019-02-03T01:51:53.652Z,22.70
2019-02-03T01:52:53.578Z,22.70
2019-02-03T01:53:53.582Z,22.70
2019-02-03T01:54:53.701Z,22.70
2019-02-03T01:55:53.638Z,22.50
2019-02-03T01:56:53.525Z,22.50
2019-02-03T01:57:53.639Z,22.50
2019-02-03T01:58:53.554Z,22.50
2019-02-03T01:59:53.553Z,22.50
2019-02-03T02:00:53.570Z,22.50
2019-02-03T02:01:53.520Z,22.50
2019-02-03T02:02:53.652Z,22.50
2019-02-03T02:03:53.549Z,22.50
2019-02-03T02:04:53.648Z,22.50
2019-02-03T02:05:53.662Z,22.20
2019-02-03T02:06:53.608Z,22.20
2019-02-03T02:07:53.601Z,22.20
2019-02-03T02:08:53.589Z,22.20
2019-02-03T02:09:53.556Z,22.20
2019-02-03T02:10:53.670Z,22.20
2019-02-03T02:11:53.551Z,22.20
2019-02-03T02:12:53.750Z,22.20
2019-02-03T02:13:53.673Z,22.20
2019-02-03T02:14:53.594Z,22.20
2019-02-03T02:15:53.615Z,22.50
2019-02-03T02:16:53.596Z,22.50
2019-02-03T02:17:53.621Z,22.50
2019-02-03T02:18:53.669Z,22.50
2019-02-03T02:19:53.599Z,22.50
2019-02-03T02:20:53.682Z,22.50
2019-02-03T02:21:53.602Z,22.50
2019-02-03T02:22:53.617Z,22.50
2019-02-03T02:23:53.676Z,22.50
2019-02-03T02:24:53.659Z,22.50
2019-02-03T02:25:53.675Z,22.70
2019-02-03T02:26:53.680Z,22.70
2019-02-03T02:27:53.691Z,22.70
2019-02-03T02:28:53.644Z,22.70
2019-02-03T02:29:53.618Z,22.70
2019-02-03T02:30:53.693Z,22.70
2019-02-03T02:31:53.645Z,22.70
2019-02-03T02:32:53.631Z,22.70
2019-02-03T02:33:53.681Z,22.70
2019-02-03T02:34:53.626Z,22.70
2019-02-03T02:35:53.545Z,24.50
2019-02-03T02:36:53.663Z,24.50
2019-02-03T02:38:05.652Z,24.50
2019-02-03T02:38:53.573Z,24.50
2019-02-03T02:39:53.616Z,24.50
2019-02-03T02:40:53.582Z,24.50
2019-02-03T02:41:53.645Z,24.50
2019-02-03T02:42:53.743Z,24.50
2019-02-03T02:43:53.674Z,24.50
2019-02-03T02:44:53.595Z,24.50
2019-02-03T02:45:53.553Z,22.50
2019-02-03T02:46:53.532Z,22.50
2019-02-03T02:47:53.632Z,22.50
2019-02-03T02:48:53.562Z,22.50
2019-02-03T02:49:53.644Z,22.50
2019-02-03T02:50:53.543Z,22.50
2019-02-03T02:51:53.581Z,22.50
2019-02-03T02:52:53.664Z,22.50
2019-02-03T02:53:53.576Z,22.50
2019-02-03T02:54:53.536Z,22.50
2019-02-03T02:55:53.577Z,26.80
2019-02-03T02:56:53.686Z,26.80
2019-02-03T02:57:53.630Z,26.80
2019-02-03T02:58:53.627Z,26.80
2019-02-03T02:59:53.687Z,26.80
2019-02-03T03:00:53.623Z,26.80
2019-02-03T03:01:53.689Z,26.80
2019-02-03T03:02:53.691Z,26.80
2019-02-03T03:03:53.618Z,26.80
2019-02-03T03:04:53.692Z,26.80
2019-02-03T03:05:53.650Z,21.70
2019-02-03T03:06:53.708Z,21.70
2019-02-03T03:07:53.707Z,21.70
2019-02-03T03:08:53.655Z,21.70
2019-02-03T03:09:53.631Z,21.70
2019-02-03T03:10:53.657Z,21.70
2019-02-03T03:11:53.656Z,21.70
2019-02-03T03:12:53.699Z,21.70
2019-02-03T03:13:53.729Z,21.70
2019-02-03T03:14:53.666Z,21.70
2019-02-03T03:15:53.625Z,23.10
2019-02-03T03:16:53.638Z,23.10
2019-02-03T03:17:53.710Z,23.10
2019-02-03T03:18:53.762Z,23.10
2019-02-03T03:19:53.710Z,23.10
2019-02-03T03:20:53.631Z,23.10
2019-02-03T03:21:53.702Z,23.10
2019-02-03T03:22:53.631Z,23.10
2019-02-03T03:23:53.709Z,23.10
2019-02-03T03:24:53.644Z,23.10
2019-02-03T03:25:53.728Z,24.30
2019-02-03T03:26:53.682Z,24.30
2019-02-03T03:27:53.724Z,24.30
2019-02-03T03:28:53.748Z,24.30
2019-02-03T03:29:53.752Z,24.30
2019-02-03T03:30:53.697Z,24.30
2019-02-03T03:31:53.674Z,24.30
2019-02-03T03:32:53.726Z,24.30
2019-02-03T03:33:53.711Z,24.30
2019-02-03T03:34:53.670Z,24.30
2019-02-03T03:35:53.654Z,23.00
2019-02-03T03:36:53.658Z,23.00
2019-02-03T03:37:53.621Z,23.00
2019-02-03T03:38:53.672Z,23.00
2019-02-03T03:39:53.609Z,23.00
2019-02-03T03:40:53.669Z,23.00
2019-02-03T03:41:53.698Z,23.00
2019-02-03T03:42:53.702Z,23.00
2019-02-03T03:43:53.641Z,23.00
2019-02-03T03:44:53.703Z,23.00
2019-02-03T03:45:53.656Z,25.30
2019-02-03T03:46:53.720Z,25.30
2019-02-03T03:47:53.656Z,25.30
2019-02-03T03:48:53.653Z,25.30
2019-02-03T03:49:53.739Z,25.30
2019-02-03T03:50:53.659Z,25.30
2019-02-03T03:51:53.724Z,25.30
2019-02-03T03:52:53.659Z,25.30
2019-02-03T03:53:53.786Z,25.30
2019-02-03T03:54:53.734Z,25.30
2019-02-03T03:55:53.648Z,24.30
2019-02-03T03:56:53.720Z,24.30
2019-02-03T03:57:53.728Z,24.30
2019-02-03T03:58:53.611Z,24.30
2019-02-03T03:59:53.676Z,24.30
2019-02-03T04:00:53.725Z,24.30
2019-02-03T04:01:53.768Z,24.30
2019-02-03T04:02:53.650Z,24.30
2019-02-03T04:03:53.721Z,24.30
2019-02-03T04:04:53.730Z,24.30
2019-02-03T04:05:53.696Z,22.70
2019-02-03T04:06:53.706Z,22.70
2019-02-03T04:07:53.750Z,22.70
2019-02-03T04:08:53.692Z,22.70
2019-02-03T04:09:53.685Z,22.70
2019-02-03T04:10:53.648Z,22.70
2019-02-03T04:11:53.689Z,22.70
2019-02-03T04:12:53.674Z,22.70
2019-02-03T04:13:53.708Z,22.70
2019-02-03T04:14:53.766Z,22.70
2019-02-03T04:15:53.762Z,20.10
2019-02-03T04:16:53.852Z,20.10
2019-02-03T04:17:53.643Z,20.10
2019-02-03T04:18:53.698Z,20.10
2019-02-03T04:19:53.690Z,20.10
2019-02-03T04:20:53.706Z,20.10
2019-02-03T04:21:53.705Z,20.10
2019-02-03T04:22:53.686Z,20.10
2019-02-03T04:23:53.689Z,20.10
2019-02-03T04:24:53.766Z,20.10
2019-02-03T04:25:53.684Z,21.20
2019-02-03T04:26:53.753Z,21.20
2019-02-03T04:27:53.809Z,21.20
2019-02-03T04:28:53.751Z,21.20
2019-02-03T04:29:53.755Z,21.20
2019-02-03T04:30:53.752Z,21.20
2019-02-03T04:31:53.679Z,21.20
2019-02-03T04:32:53.753Z,21.20
2019-02-03T04:33:53.678Z,21.20
2019-02-03T04:34:53.758Z,21.20
2019-02-03T04:35:53.708Z,22.70
2019-02-03T04:36:53.726Z,22.70
2019-02-03T04:37:53.771Z,22.70
2019-02-03T04:38:58.088Z,22.70
2019-02-03T04:39:53.792Z,22.70
2019-02-03T04:40:53.697Z,22.70
2019-02-03T04:41:53.723Z,22.70
2019-02-03T04:42:53.698Z,22.70
2019-02-03T04:43:53.719Z,22.70
2019-02-03T04:44:53.794Z,22.70
2019-02-03T04:45:53.747Z,21.99
2019-02-03T04:46:53.714Z,21.99
2019-02-03T04:47:53.629Z,21.99
2019-02-03T04:48:53.761Z,21.99
2019-02-03T04:49:53.625Z,21.99
2019-02-03T04:50:53.746Z,21.99
2019-02-03T04:51:53.667Z,21.99
2019-02-03T04:52:53.654Z,21.99
2019-02-03T04:53:53.722Z,21.99
2019-02-03T04:54:53.718Z,21.99
2019-02-03T04:55:53.693Z,19.00
2019-02-03T04:56:53.729Z,19.00
2019-02-03T04:57:53.752Z,19.00
2019-02-03T04:58:53.644Z,19.00
2019-02-03T04:59:53.713Z,19.00
2019-02-03T05:00:53.730Z,19.00
2019-02-03T05:01:53.728Z,19.00
2019-02-03T05:02:53.756Z,19.00
2019-02-03T05:03:53.748Z,19.00
2019-02-03T05:04:53.685Z,19.00
2019-02-03T05:05:53.757Z,21.20
2019-02-03T05:06:53.741Z,21.20
2019-02-03T05:07:53.732Z,21.20
2019-02-03T05:08:53.800Z,21.20
2019-02-03T05:09:53.813Z,21.20
2019-02-03T05:10:53.736Z,21.20
2019-02-03T05:11:53.783Z,21.20
2019-02-03T05:12:53.798Z,21.20
2019-02-03T05:13:53.730Z,21.20
2019-02-03T05:14:53.719Z,21.20
2019-02-03T05:15:53.802Z,21.10
2019-02-03T05:16:53.747Z,21.10
2019-02-03T05:17:53.830Z,21.10
2019-02-03T05:18:53.811Z,21.10
2019-02-03T05:19:53.836Z,21.10
2019-02-03T05:20:53.802Z,21.10
2019-02-03T05:21:53.816Z,21.10
2019-02-03T05:22:53.740Z,21.10
2019-02-03T05:23:53.821Z,21.10
2019-02-03T05:24:53.770Z,21.10
2019-02-03T05:25:54.545Z,20.40
2019-02-03T05:26:53.675Z,20.40
2019-02-03T05:27:53.782Z,20.40
2019-02-03T05:28:53.720Z,20.40
2019-02-03T05:29:53.741Z,20.40
2019-02-03T05:30:53.795Z,20.40
2019-02-03T05:31:53.721Z,20.40
2019-02-03T05:32:53.779Z,20.40
2019-02-03T05:33:53.921Z,20.40
2019-02-03T05:34:53.784Z,20.40
2019-02-03T05:35:53.763Z,20.40
2019-02-03T05:36:53.728Z,20.40
2019-02-03T05:37:53.803Z,20.40
2019-02-03T05:38:55.318Z,20.40
2019-02-03T05:39:53.800Z,20.40
2019-02-03T05:40:53.731Z,20.40
2019-02-03T05:41:53.810Z,20.40
2019-02-03T05:42:53.729Z,20.40
2019-02-03T05:43:53.734Z,20.40
2019-02-03T05:44:53.815Z,20.40
2019-02-03T05:45:53.736Z,20.40
2019-02-03T05:46:53.807Z,19.80
2019-02-03T05:47:53.733Z,19.80
2019-02-03T05:48:53.779Z,19.80
2019-02-03T05:49:53.814Z,19.80
2019-02-03T05:50:53.748Z,19.80
2019-02-03T05:51:53.806Z,19.80
2019-02-03T05:52:53.855Z,19.80
2019-02-03T05:53:53.742Z,19.80
2019-02-03T05:54:53.752Z,19.80
2019-02-03T05:55:53.810Z,19.80
2019-02-03T05:56:53.802Z,20.40
2019-02-03T05:57:53.720Z,20.40
2019-02-03T05:58:53.777Z,20.40
2019-02-03T05:59:53.711Z,20.40
2019-02-03T06:00:53.714Z,20.40
2019-02-03T06:01:53.832Z,20.40
2019-02-03T06:02:53.855Z,20.40
2019-02-03T06:03:53.768Z,20.40
2019-02-03T06:04:53.778Z,20.40
2019-02-03T06:05:53.738Z,20.40
2019-02-03T06:06:53.817Z,20.00
2019-02-03T06:07:53.814Z,20.00
2019-02-03T06:08:53.710Z,20.00
2019-02-03T06:09:53.725Z,20.00
2019-02-03T06:10:53.721Z,20.00
2019-02-03T06:11:53.813Z,20.00
2019-02-03T06:12:53.780Z,20.00
2019-02-03T06:13:53.702Z,20.00
2019-02-03T06:14:53.699Z,20.00
2019-02-03T06:15:53.732Z,20.00
2019-02-03T06:16:53.693Z,20.40
2019-02-03T06:17:53.775Z,20.40
2019-02-03T06:18:53.808Z,20.40
2019-02-03T06:19:53.805Z,20.40
2019-02-03T06:20:53.783Z,20.40
2019-02-03T06:21:53.826Z,20.40
2019-02-03T06:22:53.684Z,20.40
2019-02-03T06:23:53.760Z,20.40
2019-02-03T06:24:53.685Z,20.40
2019-02-03T06:25:53.813Z,20.40
2019-02-03T06:26:53.849Z,19.80
2019-02-03T06:27:53.838Z,19.80
2019-02-03T06:28:53.790Z,19.80
2019-02-03T06:29:53.829Z,19.80
2019-02-03T06:30:53.855Z,19.80
2019-02-03T06:31:53.798Z,19.80
2019-02-03T06:32:53.835Z,19.80
2019-02-03T06:33:53.778Z,19.80
2019-02-03T06:34:53.795Z,19.80
2019-02-03T06:35:53.798Z,19.80
2019-02-03T06:36:53.791Z,20.99
2019-02-03T06:37:53.763Z,20.99
2019-02-03T06:38:53.846Z,20.99
2019-02-03T06:39:53.766Z,20.99
2019-02-03T06:40:53.767Z,20.99
2019-02-03T06:41:53.811Z,20.99
2019-02-03T06:42:53.720Z,20.99
2019-02-03T06:43:53.808Z,20.99
2019-02-03T06:44:53.725Z,20.99
2019-02-03T06:45:53.744Z,20.99
2019-02-03T06:46:53.824Z,18.30
2019-02-03T06:47:53.844Z,18.30
2019-02-03T06:48:53.864Z,18.30
2019-02-03T06:49:53.870Z,18.30
2019-02-03T06:50:53.846Z,18.30
2019-02-03T06:51:53.912Z,18.30
2019-02-03T06:52:53.812Z,18.30
2019-02-03T06:53:53.867Z,18.30
2019-02-03T06:54:53.797Z,18.30
2019-02-03T06:55:53.888Z,18.30
2019-02-03T06:56:53.813Z,20.20
2019-02-03T06:57:53.808Z,20.20
2019-02-03T06:58:53.809Z,20.20
2019-02-03T06:59:53.796Z,20.20
2019-02-03T07:00:53.872Z,20.20
2019-02-03T07:01:53.810Z,20.20
2019-02-03T07:02:53.870Z,20.20
2019-02-03T07:03:53.866Z,20.20
2019-02-03T07:04:53.883Z,20.20
2019-02-03T07:05:53.873Z,20.20
2019-02-03T07:06:53.871Z,21.20
2019-02-03T07:07:53.873Z,21.20
2019-02-03T07:08:53.798Z,21.20
2019-02-03T07:10:00.344Z,21.20
2019-02-03T07:10:53.874Z,21.20
2019-02-03T07:11:53.800Z,21.20
2019-02-03T07:12:53.805Z,21.20
2019-02-03T07:13:53.802Z,21.20
2019-02-03T07:14:53.885Z,21.20
2019-02-03T07:15:53.805Z,21.20
2019-02-03T07:16:53.910Z,18.70
2019-02-03T07:17:53.890Z,18.70
2019-02-03T07:18:53.930Z,18.70
2019-02-03T07:19:53.829Z,18.70
2019-02-03T07:20:53.890Z,18.70
2019-02-03T07:21:53.882Z,18.70
2019-02-03T07:22:53.828Z,18.70
2019-02-03T07:23:53.808Z,18.70
2019-02-03T07:24:53.890Z,18.70
2019-02-03T07:25:53.883Z,18.70
2019-02-03T07:26:53.874Z,18.10
2019-02-03T07:27:53.798Z,18.10
2019-02-03T07:28:53.895Z,18.10
2019-02-03T07:29:53.913Z,18.10
2019-02-03T07:30:53.801Z,18.10
2019-02-03T07:31:53.803Z,18.10
2019-02-03T07:32:53.878Z,18.10
2019-02-03T07:33:53.882Z,18.10
2019-02-03T07:34:53.887Z,18.10
2019-02-03T07:35:53.792Z,18.10
2019-02-03T07:36:53.806Z,17.60
2019-02-03T07:37:53.811Z,17.60
2019-02-03T07:38:53.881Z,17.60
2019-02-03T07:39:53.807Z,17.60
2019-02-03T07:40:53.813Z,17.60
2019-02-03T07:41:53.906Z,17.60
2019-02-03T07:42:53.820Z,17.60
2019-02-03T07:43:53.888Z,17.60
2019-02-03T07:44:53.844Z,17.60
2019-02-03T07:45:53.809Z,17.60
2019-02-03T07:46:53.889Z,18.20
2019-02-03T07:47:53.881Z,18.20
2019-02-03T07:48:53.796Z,18.20
2019-02-03T07:49:53.818Z,18.20
2019-02-03T07:50:53.881Z,18.20
2019-02-03T07:51:53.860Z,18.20
2019-02-03T07:52:53.792Z,18.20
2019-02-03T07:53:53.837Z,18.20
2019-02-03T07:54:53.888Z,18.20
2019-02-03T07:55:53.894Z,18.20
2019-02-03T07:56:53.891Z,19.10
2019-02-03T07:57:53.895Z,19.10
2019-02-03T07:58:53.901Z,19.10
2019-02-03T07:59:53.808Z,19.10
2019-02-03T08:00:53.828Z,19.10
2019-02-03T08:01:53.898Z,19.10
2019-02-03T08:02:53.824Z,19.10
2019-02-03T08:03:53.901Z,19.10
2019-02-03T08:04:53.821Z,19.10
2019-02-03T08:05:53.838Z,19.10
2019-02-03T08:06:53.837Z,20.60
2019-02-03T08:07:53.914Z,20.60
2019-02-03T08:08:53.923Z,20.60
2019-02-03T08:09:53.859Z,20.60
2019-02-03T08:10:53.911Z,20.60
2019-02-03T08:11:53.913Z,20.60
2019-02-03T08:12:53.847Z,20.60
2019-02-03T08:13:53.810Z,20.60
2019-02-03T08:14:53.854Z,20.60
2019-02-03T08:15:53.850Z,20.60
2019-02-03T08:16:53.938Z,20.40
2019-02-03T08:17:53.938Z,20.40
2019-02-03T08:18:53.863Z,20.40
2019-02-03T08:19:54.002Z,20.40
2019-02-03T08:20:53.849Z,20.40
2019-02-03T08:21:53.926Z,20.40
2019-02-03T08:22:53.850Z,20.40
2019-02-03T08:23:53.924Z,20.40
2019-02-03T08:24:53.852Z,20.40
2019-02-03T08:25:53.851Z,20.40
2019-02-03T08:26:53.932Z,15.99
2019-02-03T08:27:53.853Z,15.99
2019-02-03T08:28:53.925Z,15.99
2019-02-03T08:29:53.852Z,15.99
2019-02-03T08:30:53.954Z,15.99
2019-02-03T08:31:53.875Z,15.99
2019-02-03T08:32:53.822Z,15.99
2019-02-03T08:33:53.928Z,15.99
2019-02-03T08:34:53.860Z,15.99
2019-02-03T08:35:53.934Z,15.99
2019-02-03T08:36:53.936Z,13.60
2019-02-03T08:37:53.862Z,13.60
2019-02-03T08:38:53.863Z,13.60
2019-02-03T08:39:53.873Z,13.60
2019-02-03T08:40:54.027Z,13.60
2019-02-03T08:41:53.934Z,13.60
2019-02-03T08:42:55.801Z,13.60
2019-02-03T08:43:53.865Z,13.60
2019-02-03T08:44:53.946Z,13.60
2019-02-03T08:45:53.867Z,13.60
2019-02-03T08:46:53.830Z,13.00
2019-02-03T08:47:53.905Z,13.00
2019-02-03T08:48:53.792Z,13.00
2019-02-03T08:49:53.863Z,13.00
2019-02-03T08:50:53.905Z,13.00
2019-02-03T08:51:53.869Z,13.00
2019-02-03T08:52:53.859Z,13.00
2019-02-03T08:53:53.890Z,13.00
2019-02-03T08:54:58.400Z,13.00
2019-02-03T08:55:53.800Z,13.00
2019-02-03T08:56:53.910Z,13.70
2019-02-03T08:57:53.801Z,13.70
2019-02-03T08:58:53.833Z,13.70
2019-02-03T08:59:53.850Z,13.70
2019-02-03T09:00:53.861Z,13.70
2019-02-03T09:01:53.824Z,13.70
2019-02-03T09:02:53.803Z,13.70
2019-02-03T09:03:53.900Z,13.70
2019-02-03T09:04:53.815Z,13.70
2019-02-03T09:05:53.804Z,13.70
2019-02-03T09:06:53.897Z,15.50
2019-02-03T09:07:53.952Z,15.50
2019-02-03T09:08:54.010Z,15.50
2019-02-03T09:09:53.954Z,15.50
2019-02-03T09:10:54.070Z,15.50
2019-02-03T09:11:53.958Z,15.50
2019-02-03T09:12:53.891Z,15.50
2019-02-03T09:13:55.754Z,15.50
2019-02-03T09:14:53.889Z,15.50
2019-02-03T09:15:53.894Z,15.50
2019-02-03T09:16:53.948Z,13.20
2019-02-03T09:17:53.882Z,13.20
2019-02-03T09:18:53.915Z,13.20
2019-02-03T09:19:53.881Z,13.20
2019-02-03T09:20:55.920Z,13.20
2019-02-03T09:21:53.953Z,13.20
2019-02-03T09:22:53.885Z,13.20
2019-02-03T09:23:53.878Z,13.20
2019-02-03T09:24:53.954Z,13.20
2019-02-03T09:25:53.868Z,13.20
2019-02-03T09:26:53.970Z,15.40
2019-02-03T09:27:53.966Z,15.40
2019-02-03T09:28:53.894Z,15.40
2019-02-03T09:29:53.904Z,15.40
2019-02-03T09:30:53.984Z,15.40
2019-02-03T09:31:53.900Z,15.40
2019-02-03T09:32:53.973Z,15.40
2019-02-03T09:33:53.902Z,15.40
2019-02-03T09:34:53.902Z,15.40
2019-02-03T09:35:53.979Z,15.40
2019-02-03T09:36:53.918Z,16.60
2019-02-03T09:37:53.981Z,16.60
2019-02-03T09:38:54.097Z,16.60
2019-02-03T09:39:53.904Z,16.60
2019-02-03T09:41:00.165Z,16.60
2019-02-03T09:41:53.907Z,16.60
2019-02-03T09:42:53.920Z,16.60
2019-02-03T09:43:53.907Z,16.60
2019-02-03T09:44:53.903Z,16.60
2019-02-03T09:45:53.909Z,16.60
2019-02-03T09:46:53.908Z,14.50
2019-02-03T09:47:53.981Z,14.50
2019-02-03T09:48:53.923Z,14.50
2019-02-03T09:49:53.941Z,14.50
2019-02-03T09:50:53.992Z,14.50
2019-02-03T09:51:53.914Z,14.50
2019-02-03T09:52:53.927Z,14.50
2019-02-03T09:53:53.912Z,14.50
2019-02-03T09:54:54.010Z,14.50
2019-02-03T09:55:53.997Z,14.50
2019-02-03T09:56:53.988Z,13.80
2019-02-03T09:57:53.918Z,13.80
2019-02-03T09:58:53.994Z,13.80
2019-02-03T09:59:53.919Z,13.80
2019-02-03T10:00:53.956Z,13.80
2019-02-03T10:01:53.916Z,13.80
2019-02-03T10:02:53.922Z,13.80
2019-02-03T10:03:53.923Z,13.80
2019-02-03T10:04:53.993Z,13.80
2019-02-03T10:05:53.922Z,13.80
2019-02-03T10:06:53.935Z,10.60
2019-02-03T10:07:53.920Z,10.60
2019-02-03T10:08:54.004Z,10.60
2019-02-03T10:09:53.922Z,10.60
2019-02-03T10:10:53.993Z,10.60
2019-02-03T10:11:53.930Z,10.60
2019-02-03T10:12:53.984Z,10.60
2019-02-03T10:13:53.928Z,10.60
2019-02-03T10:14:54.006Z,10.60
2019-02-03T10:15:53.932Z,10.60
2019-02-03T10:16:53.857Z,10.20
2019-02-03T10:17:53.916Z,10.20
2019-02-03T10:18:53.879Z,10.20
2019-02-03T10:19:53.906Z,10.20
2019-02-03T10:20:53.855Z,10.20
2019-02-03T10:21:53.866Z,10.20
2019-02-03T10:22:53.916Z,10.20
2019-02-03T10:23:53.828Z,10.20
2019-02-03T10:24:53.957Z,10.20
2019-02-03T10:25:55.433Z,10.20
2019-02-03T10:26:53.939Z,9.10
2019-02-03T10:27:54.047Z,9.10
2019-02-03T10:28:54.007Z,9.10
2019-02-03T10:29:53.963Z,9.10
2019-02-03T10:30:54.016Z,9.10
2019-02-03T10:31:54.024Z,9.10
2019-02-03T10:32:54.008Z,9.10
2019-02-03T10:33:53.954Z,9.10
2019-02-03T10:34:54.019Z,9.10
2019-02-03T10:35:54.021Z,9.10
2019-02-03T10:36:53.922Z,9.00
2019-02-03T10:37:53.997Z,9.00
2019-02-03T10:38:54.104Z,9.00
2019-02-03T10:39:53.997Z,9.00
2019-02-03T10:40:53.885Z,9.00
2019-02-03T10:41:53.918Z,9.00
2019-02-03T10:42:53.882Z,9.00
2019-02-03T10:43:56.282Z,9.00
2019-02-03T10:44:53.934Z,9.00
2019-02-03T10:45:53.945Z,9.00
2019-02-03T10:46:53.951Z,8.20
2019-02-03T10:47:54.080Z,8.20
2019-02-03T10:48:53.954Z,8.20
2019-02-03T10:49:53.914Z,8.20
2019-02-03T10:50:53.957Z,8.20
2019-02-03T10:51:54.022Z,8.20
2019-02-03T10:52:54.038Z,8.20
2019-02-03T10:53:53.958Z,8.20
2019-02-03T10:54:55.968Z,8.20
2019-02-03T10:55:53.957Z,8.20
2019-02-03T10:56:53.963Z,7.70
2019-02-03T10:57:53.957Z,7.70
2019-02-03T10:58:54.025Z,7.70
2019-02-03T10:59:53.973Z,7.70
2019-02-03T11:00:55.174Z,7.70
2019-02-03T11:01:54.038Z,7.70
2019-02-03T11:02:54.034Z,7.70
2019-02-03T11:03:53.966Z,7.70
2019-02-03T11:04:54.038Z,7.70
2019-02-03T11:05:53.963Z,7.70
2019-02-03T11:06:54.034Z,8.90
2019-02-03T11:07:54.034Z,8.90
2019-02-03T11:08:53.972Z,8.90
2019-02-03T11:09:54.036Z,8.90
2019-02-03T11:10:53.979Z,8.90
2019-02-03T11:11:53.968Z,8.90
2019-02-03T11:12:53.976Z,8.90
2019-02-03T11:13:53.970Z,8.90
2019-02-03T11:14:54.046Z,8.90
2019-02-03T11:15:53.987Z,8.90
2019-02-03T11:16:54.042Z,9.50
2019-02-03T11:17:54.041Z,9.50
2019-02-03T11:18:53.977Z,9.50
2019-02-03T11:19:54.052Z,9.50
2019-02-03T11:20:53.970Z,9.50
2019-02-03T11:21:54.046Z,9.50
2019-02-03T11:22:54.054Z,9.50
2019-02-03T11:23:53.974Z,9.50
2019-02-03T11:24:54.058Z,9.50
2019-02-03T11:25:53.981Z,9.50
2019-02-03T11:26:54.044Z,8.90
2019-02-03T11:27:53.971Z,8.90
2019-02-03T11:28:54.007Z,8.90
2019-02-03T11:29:54.045Z,8.90
2019-02-03T11:30:53.988Z,8.90
2019-02-03T11:31:54.519Z,8.90
2019-02-03T11:33:04.715Z,8.90
2019-02-03T11:33:54.042Z,8.90
2019-02-03T11:34:53.972Z,8.90
2019-02-03T11:35:54.013Z,8.90
2019-02-03T11:36:54.043Z,7.70
2019-02-03T11:37:53.987Z,7.70
2019-02-03T11:38:54.061Z,7.70
2019-02-03T11:39:53.990Z,7.70
2019-02-03T11:40:53.996Z,7.70
2019-02-03T11:41:54.063Z,7.70
2019-02-03T11:42:54.006Z,7.70
2019-02-03T11:43:53.992Z,7.70
2019-02-03T11:44:54.065Z,7.70
2019-02-03T11:45:53.994Z,7.70
2019-02-03T11:46:53.994Z,7.70
2019-02-03T11:47:54.065Z,7.50
2019-02-03T11:48:53.997Z,7.50
2019-02-03T11:49:54.067Z,7.50
2019-02-03T11:50:54.025Z,7.50
2019-02-03T11:51:53.999Z,7.50
2019-02-03T11:52:54.064Z,7.50
2019-02-03T11:53:53.997Z,7.50
2019-02-03T11:54:54.071Z,7.50
2019-02-03T11:55:54.078Z,7.50
2019-02-03T11:56:54.011Z,7.50
2019-02-03T11:57:53.958Z,9.90
2019-02-03T11:58:54.093Z,9.90
2019-02-03T11:59:54.074Z,9.90
2019-02-03T12:00:54.074Z,9.90
2019-02-03T12:01:53.999Z,9.90
2019-02-03T12:02:53.999Z,9.90
2019-02-03T12:03:54.092Z,9.90
2019-02-03T12:04:54.003Z,9.90
2019-02-03T12:05:54.003Z,9.90
2019-02-03T12:06:54.011Z,9.90
2019-02-03T12:07:54.060Z,10.60
2019-02-03T12:08:54.071Z,10.60
2019-02-03T12:09:54.068Z,10.60
2019-02-03T12:10:54.019Z,10.60
2019-02-03T12:12:01.155Z,10.60
2019-02-03T12:12:53.984Z,10.60
2019-02-03T12:13:54.001Z,10.60
2019-02-03T12:14:54.000Z,10.60
2019-02-03T12:15:54.074Z,10.60
2019-02-03T12:16:54.091Z,10.60
2019-02-03T12:17:54.062Z,11.50
2019-02-03T12:18:54.024Z,11.50
2019-02-03T12:19:54.022Z,11.50
2019-02-03T12:20:54.065Z,11.50
2019-02-03T12:21:54.074Z,11.50
2019-02-03T12:22:53.986Z,11.50
2019-02-03T12:23:54.076Z,11.50
2019-02-03T12:24:54.064Z,11.50
2019-02-03T12:25:53.979Z,11.50
2019-02-03T12:26:54.081Z,11.50
2019-02-03T12:27:54.014Z,9.20
2019-02-03T12:28:54.022Z,9.20
2019-02-03T12:29:54.095Z,9.20
2019-02-03T12:30:54.030Z,9.20
2019-02-03T12:31:54.088Z,9.20
2019-02-03T12:32:54.051Z,9.20
2019-02-03T12:33:54.000Z,9.20
2019-02-03T12:34:54.094Z,9.20
2019-02-03T12:35:54.054Z,9.20
2019-02-03T12:36:54.089Z,9.20
2019-02-03T12:37:54.088Z,9.10
2019-02-03T12:38:54.054Z,9.10
2019-02-03T12:39:54.110Z,9.10
2019-02-03T12:40:54.091Z,9.10
2019-02-03T12:41:54.001Z,9.10
2019-02-03T12:42:54.004Z,9.10
2019-02-03T12:43:53.990Z,9.10
2019-02-03T12:44:54.092Z,9.10
2019-02-03T12:45:54.018Z,9.10
2019-02-03T12:46:54.007Z,9.10
2019-02-03T12:47:54.041Z,6.00
2019-02-03T12:48:54.114Z,6.00
2019-02-03T12:49:54.087Z,6.00
2019-02-03T12:50:54.071Z,6.00
2019-02-03T12:51:54.118Z,6.00
2019-02-03T12:52:54.041Z,6.00
2019-02-03T12:53:53.971Z,6.00
2019-02-03T12:54:53.975Z,6.00
2019-02-03T12:55:53.996Z,6.00
2019-02-03T12:56:53.981Z,6.00